Time;durP1;ratioP1;P1;durP2;ratioP2;P2;SDS_P1;SDS_P2;PMS_P1;PMS_P2;Temp;Humidity;BMP_temperature;BMP_pressure;BME280_temperature;BME280_humidity;BME280_pressure;Samples;Min_cycle;Max_cycle;Signal;HPM_P1;HPM_P2
2022/12/30 00:02:04;;;;;;;41.72;19.98;;;;;;;0.58;78.28;94181.22;5070825;28;20492;-44
2022/12/30 00:04:29;;;;;;;35.17;19.42;;;;;;;0.46;78.87;94187.66;5066703;28;20077;-44
2022/12/30 00:06:54;;;;;;;45.75;17.77;;;;;;;0.39;78.96;94184.56;5064800;28;20484;-45
2022/12/30 00:09:20;;;;;;;44.30;20.85;;;;;;;0.31;78.83;94188.84;5070831;28;20028;-44
2022/12/30 00:11:45;;;;;;;40.85;20.58;;;;;;;0.30;79.08;94193.53;5068984;28;20098;-43
2022/12/30 00:34:16;;;;;;;136.13;20.08;;;;;;;0.54;81.01;94193.50;5067340;28;20047;-44
2022/12/30 00:36:41;;;;;;;;;;;;;;;0.55;81.56;94193.03;5102722;27;20036;-45
2022/12/30 00:39:07;;;;;;;67.63;16.48;;;;;;;0.64;82.05;94194.91;5099125;28;19908;-43
2022/12/30 00:44:16;;;;;;;107.03;20.40;;;;;;;0.55;80.91;94197.69;5066346;28;20035;-44
2022/12/30 00:46:43;;;;;;;69.80;17.90;;;;;;;0.62;80.83;94203.53;5063815;28;20016;-44
2022/12/30 00:57:21;;;;;;;44.08;19.30;;;;;;;0.51;81.20;94203.31;5061072;28;20040;-44
2022/12/30 00:59:47;;;;;;;61.95;19.67;;;;;;;0.52;81.02;94195.94;5066976;28;20020;-44
2022/12/30 01:02:12;;;;;;;37.50;20.88;;;;;;;0.60;80.99;94191.63;5064221;28;20025;-44
2022/12/30 01:04:38;;;;;;;40.08;19.10;;;;;;;0.61;80.84;94190.38;5061682;28;20057;-44
2022/12/30 01:07:03;;;;;;;40.05;18.50;;;;;;;0.66;80.35;94192.47;5062480;28;20025;-43
2022/12/30 01:09:28;;;;;;;40.05;19.20;;;;;;;0.66;80.94;94187.03;5068158;28;20036;-43
2022/12/30 01:12:09;;;;;;;50.20;23.10;;;;;;;0.86;79.86;94186.41;5066729;28;20503;-45
2022/12/30 01:14:37;;;;;;;45.58;20.67;;;;;;;0.85;80.55;94185.63;5060931;28;20028;-43
2022/12/30 01:17:03;;;;;;;52.35;21.25;;;;;;;0.76;80.28;94185.72;5060085;28;20025;-44
2022/12/30 01:19:28;;;;;;;52.97;22.85;;;;;;;0.68;80.34;94146.56;5065817;28;20032;-45
2022/12/30 01:21:54;;;;;;;51.95;22.48;;;;;;;0.97;80.20;94173.75;5067496;28;20078;-44
2022/12/30 01:24:19;;;;;;;54.58;25.15;;;;;;;1.02;79.88;94175.78;5060347;28;20024;-45
2022/12/30 01:26:45;;;;;;;56.78;23.45;;;;;;;1.00;79.80;94175.50;5061476;28;20032;-43
2022/12/30 01:29:10;;;;;;;49.03;23.85;;;;;;;0.89;79.21;94171.88;5069537;28;20101;-45
2022/12/30 01:31:35;;;;;;;53.70;24.60;;;;;;;0.91;79.94;94170.16;5062675;28;20515;-44
2022/12/30 01:34:01;;;;;;;54.90;24.23;;;;;;;1.00;79.76;94178.22;5065273;28;20049;-43
2022/12/30 01:36:26;;;;;;;61.05;26.95;;;;;;;0.94;79.84;94180.13;5064606;28;20036;-44
2022/12/30 01:38:52;;;;;;;41.88;22.65;;;;;;;1.04;80.01;94175.34;5066960;28;20032;-44
2022/12/30 01:41:18;;;;;;;38.03;20.30;;;;;;;0.89;80.37;94172.59;5061767;28;20021;-43
2022/12/30 01:43:46;;;;;;;37.30;19.98;;;;;;;1.02;79.97;94164.91;5065228;28;20036;-44
2022/12/30 01:46:19;;;;;;;36.25;18.13;;;;;;;1.24;79.44;94161.81;5072115;28;20487;-43
2022/12/30 01:48:45;;;;;;;33.63;16.83;;;;;;;1.28;78.63;94171.28;5064090;28;20032;-44
2022/12/30 01:51:15;;;;;;;34.85;17.23;;;;;;;1.22;78.54;94164.25;5062835;28;20423;-45
2022/12/30 01:53:46;;;;;;;31.50;16.35;;;;;;;1.09;78.94;94161.81;5065027;28;20070;-43
2022/12/30 01:56:33;;;;;;;32.10;17.00;;;;;;;0.84;80.32;94156.97;5066020;28;20021;-43
2022/12/30 01:59:26;;;;;;;32.97;18.00;;;;;;;1.02;79.69;94151.31;5076153;28;20024;-46
2022/12/30 02:01:51;;;;;;;25.88;15.70;;;;;;;1.21;79.16;94155.31;5065444;28;20044;-44
2022/12/30 02:04:20;;;;;;;29.85;16.90;;;;;;;1.17;79.84;94157.50;5062740;28;20040;-45
2022/12/30 02:06:54;;;;;;;33.63;17.33;;;;;;;1.33;78.76;94153.53;5067016;28;20020;-47
2022/12/30 02:09:20;;;;;;;36.50;17.85;;;;;;;1.22;79.68;94151.41;5063717;28;20037;-46
2022/12/30 02:11:45;;;;;;;30.05;17.40;;;;;;;1.12;80.53;94141.84;5096650;28;20393;-43
2022/12/30 02:14:11;;;;;;;29.67;16.73;;;;;;;1.20;79.86;94132.09;5071979;28;20024;-43
2022/12/30 02:16:56;;;;;;;31.27;16.90;;;;;;;1.17;78.93;94156.78;5070307;28;20423;-43
2022/12/30 02:19:24;;;;;;;29.17;16.95;;;;;;;1.28;80.22;94157.66;5063189;28;20382;-45
2022/12/30 02:22:18;;;;;;;23.98;14.48;;;;;;;1.40;79.58;94156.63;5065798;28;20032;-44
2022/12/30 02:24:52;;;;;;;27.63;16.50;;;;;;;1.25;78.75;94161.34;5065121;28;20063;-44
2022/12/30 02:27:52;;;;;;;29.40;15.32;;;;;;;1.37;78.38;94157.56;5067726;28;20032;-43
2022/12/30 02:30:22;;;;;;;30.67;16.80;;;;;;;1.20;78.41;94140.25;5062535;28;20050;-43
2022/12/30 02:33:10;;;;;;;26.63;16.20;;;;;;;1.14;79.77;94154.97;5060482;28;20112;-43
2022/12/30 02:35:48;;;;;;;38.45;18.67;;;;;;;1.29;79.22;94156.47;5065140;28;20509;-42
2022/12/30 02:38:35;;;;;;;32.72;19.20;;;;;;;1.35;79.28;94153.81;5071229;28;20162;-43
2022/12/30 02:47:22;;;;;;;35.63;18.10;;;;;;;1.35;79.67;94145.66;5067502;28;20084;-43
2022/12/30 02:52:55;;;;;;;31.98;16.33;;;;;;;1.55;80.17;94142.97;5067876;28;20112;-44
2022/12/30 02:55:21;;;;;;;30.50;16.67;;;;;;;1.67;79.27;94147.34;5073556;28;20032;-45
2022/12/30 02:57:47;;;;;;;34.78;17.42;;;;;;;1.22;79.22;94113.31;5062752;28;20423;-43
2022/12/30 03:06:06;;;;;;;30.38;15.73;;;;;;;1.51;79.60;94140.47;5066042;28;20032;-43
2022/12/30 03:08:36;;;;;;;29.27;15.40;;;;;;;1.57;79.83;94140.53;5070672;28;20032;-44
2022/12/30 03:11:18;;;;;;;;;;;;;;;1.51;79.95;94150.59;5066414;28;20104;-44
2022/12/30 03:14:03;;;;;;;31.23;17.70;;;;;;;1.42;80.00;94148.75;5067496;28;19927;-44
2022/12/30 03:16:34;;;;;;;34.53;18.85;;;;;;;1.62;79.47;94144.56;5067518;28;20101;-43
2022/12/30 03:19:03;;;;;;;34.53;17.15;;;;;;;1.62;79.05;94150.75;5068743;28;20035;-45
2022/12/30 03:21:31;;;;;;;36.17;17.98;;;;;;;1.61;78.83;94145.78;5069512;28;20107;-43
2022/12/30 03:27:03;;;;;;;34.35;17.23;;;;;;;1.48;79.81;94146.84;5068594;28;20042;-43
2022/12/30 03:29:58;;;;;;;33.42;17.50;;;;;;;1.46;80.11;94148.53;5064902;28;20119;-44
2022/12/30 03:32:23;;;;;;;32.95;18.90;;;;;;;1.43;80.43;94142.06;5059373;28;20118;-43
2022/12/30 03:34:49;;;;;;;27.75;17.35;;;;;;;1.34;80.04;94157.78;5067448;28;20074;-43
2022/12/30 03:37:46;;;;;;;29.52;17.92;;;;;;;1.27;80.39;94144.56;5096667;28;20123;-43
2022/12/30 03:40:47;;;;;;;27.83;15.77;;;;;;;1.23;nan;94157.59;5060630;28;20466;-43
2022/12/30 03:43:13;;;;;;;28.13;15.10;;;;;;;1.34;81.11;94158.50;5042403;28;20060;-43
2022/12/30 03:45:39;;;;;;;28.23;15.02;;;;;;;1.41;80.74;94162.81;5059549;28;20036;-43
2022/12/30 03:48:05;;;;;;;27.15;14.82;;;;;;;1.56;79.87;94163.50;5066933;28;20029;-43
2022/12/30 03:50:30;;;;;;;29.35;14.38;;;;;;;1.47;80.36;94171.81;5065055;28;20063;-45
2022/12/30 03:52:55;;;;;;;26.70;14.85;;;;;;;1.49;80.02;94167.38;5066376;28;20032;-45
2022/12/30 03:55:21;;;;;;;25.85;15.48;;;;;;;1.40;80.74;94164.78;5066141;28;20078;-46
2022/12/30 03:57:46;;;;;;;28.15;15.63;;;;;;;1.02;81.27;94123.41;5062986;28;20071;-43
2022/12/30 04:00:12;;;;;;;25.30;16.23;;;;;;;1.34;80.94;94169.38;5063959;28;20036;-44
2022/12/30 04:02:38;;;;;;;27.10;16.33;;;;;;;1.41;81.41;94169.00;5064148;28;20115;-44
2022/12/30 04:05:05;;;;;;;27.50;15.60;;;;;;;1.53;81.04;94167.97;5061541;28;20689;-44
2022/12/30 04:07:30;;;;;;;30.23;16.65;;;;;;;1.59;79.85;94167.28;5061706;28;20036;-42
2022/12/30 04:09:56;;;;;;;26.33;15.93;;;;;;;1.47;80.12;94178.00;5065179;28;20418;-43
2022/12/30 04:12:21;;;;;;;32.65;16.48;;;;;;;1.51;79.61;94178.56;5069443;28;20098;-43
2022/12/30 04:14:46;;;;;;;32.55;17.67;;;;;;;1.48;79.80;94181.47;5062748;28;20170;-43
2022/12/30 04:17:12;;;;;;;30.13;16.77;;;;;;;1.48;79.62;94182.22;5064656;28;20135;-43
2022/12/30 04:19:37;;;;;;;34.63;18.00;;;;;;;1.41;78.97;94182.59;5068559;28;20028;-46
2022/12/30 04:22:03;;;;;;;34.28;18.50;;;;;;;1.41;79.35;94184.56;5055634;28;20025;-45
2022/12/30 04:24:28;;;;;;;33.03;17.90;;;;;;;1.29;78.62;94188.34;5072339;28;20016;-42
2022/12/30 04:26:54;;;;;;;34.15;18.63;;;;;;;1.06;79.35;94181.06;5063795;28;20699;-44
2022/12/30 04:29:19;;;;;;;33.72;19.25;;;;;;;0.94;79.75;94185.56;5068600;28;20032;-45
2022/12/30 04:31:45;;;;;;;33.63;20.00;;;;;;;0.56;80.41;94193.78;5068488;28;20088;-44
2022/12/30 04:34:12;;;;;;;40.03;21.02;;;;;;;0.76;80.63;94189.19;5064248;28;20044;-45
2022/12/30 04:36:37;;;;;;;34.63;20.17;;;;;;;0.85;79.93;94191.06;5068171;28;20032;-46
2022/12/30 04:39:03;;;;;;;38.50;20.25;;;;;;;0.83;80.13;94190.78;5067727;28;20025;-44
2022/12/30 04:41:28;;;;;;;40.85;21.85;;;;;;;0.86;79.78;94195.31;5059260;28;20025;-43
2022/12/30 04:43:54;;;;;;;36.92;19.67;;;;;;;0.61;80.59;94199.31;5068424;28;20024;-44
2022/12/30 04:46:19;;;;;;;36.97;21.00;;;;;;;0.57;80.90;94189.81;5075431;28;20028;-44
2022/12/30 04:48:45;;;;;;;39.05;20.65;;;;;;;0.50;80.43;94198.34;5066685;28;20028;-43
2022/12/30 04:51:10;;;;;;;32.55;19.38;;;;;;;0.27;80.84;94180.13;5063818;28;20047;-43
2022/12/30 04:53:36;;;;;;;34.13;18.92;;;;;;;0.23;81.21;94195.84;5066418;28;20032;-43
2022/12/30 04:56:01;;;;;;;32.25;17.65;;;;;;;0.19;80.90;94192.56;5066592;28;20060;-45
2022/12/30 04:58:26;;;;;;;27.58;15.57;;;;;;;0.32;80.37;94206.66;5064980;28;20032;-44
2022/12/30 05:00:53;;;;;;;33.55;19.92;;;;;;;0.18;80.29;94185.63;5069458;28;20078;-44
2022/12/30 05:03:18;;;;;;;33.33;18.52;;;;;;;0.04;80.80;94210.75;5060414;28;20545;-44
2022/12/30 05:05:44;;;;;;;31.88;19.83;;;;;;;0.12;81.10;94206.47;5066804;28;20025;-44
2022/12/30 05:08:10;;;;;;;36.45;22.05;;;;;;;-0.04;81.24;94197.53;5067073;28;20103;-45
2022/12/30 05:10:36;;;;;;;31.92;18.98;;;;;;;0.11;81.34;94218.56;5065902;28;20035;-44
2022/12/30 05:13:02;;;;;;;30.92;19.40;;;;;;;0.06;80.60;94219.94;5073645;28;20047;-44
2022/12/30 05:15:28;;;;;;;31.35;19.52;;;;;;;0.10;80.40;94222.47;5066155;28;20020;-46
2022/12/30 05:17:53;;;;;;;26.77;17.05;;;;;;;0.20;80.11;94227.38;5064416;28;20032;-48
2022/12/30 05:20:18;;;;;;;28.73;16.90;;;;;;;0.29;79.73;94223.84;5071841;28;20024;-45
2022/12/30 05:22:44;;;;;;;34.50;19.75;;;;;;;0.27;79.56;94227.03;5065513;28;20036;-46
2022/12/30 05:27:54;;;;;;;33.45;19.85;;;;;;;0.02;80.51;94234.91;5059547;28;20039;-45
2022/12/30 05:30:19;;;;;;;46.13;22.80;;;;;;;-0.12;82.00;94239.81;5072301;28;20032;-44
2022/12/30 05:32:45;;;;;;;41.20;23.60;;;;;;;-0.13;82.30;94232.13;5067093;28;20463;-45
2022/12/30 05:35:10;;;;;;;42.40;21.95;;;;;;;-0.22;82.63;94232.91;5063057;28;20105;-44
2022/12/30 05:37:36;;;;;;;40.35;22.30;;;;;;;-0.09;82.88;94232.72;5066268;28;20027;-44
2022/12/30 05:40:03;;;;;;;32.40;19.70;;;;;;;-0.06;81.83;94216.25;5066611;28;20028;-43
2022/12/30 05:42:28;;;;;;;35.55;18.77;;;;;;;-0.02;80.74;94237.78;5062366;28;20025;-43
2022/12/30 05:44:54;;;;;;;35.45;17.83;;;;;;;-0.08;80.74;94239.63;5063664;28;20063;-43
2022/12/30 05:47:19;;;;;;;32.97;20.38;;;;;;;-0.29;81.02;94240.66;5101961;28;20127;-43
2022/12/30 05:49:45;;;;;;;39.47;19.75;;;;;;;-0.41;81.35;94230.78;5069972;28;20046;-44
2022/12/30 05:52:10;;;;;;;32.15;17.48;;;;;;;-0.28;81.19;94248.31;5061617;28;20516;-45
2022/12/30 05:54:37;;;;;;;44.65;21.17;;;;;;;-0.31;81.20;94232.97;5072523;28;20059;-45
2022/12/30 05:57:02;;;;;;;33.53;19.02;;;;;;;-0.15;81.08;94251.56;5066559;28;20056;-45
2022/12/30 05:59:28;;;;;;;30.50;19.10;;;;;;;-0.04;81.23;94238.25;5066529;28;20048;-50
2022/12/30 06:01:53;;;;;;;31.58;18.05;;;;;;;-0.08;80.78;94245.81;5067842;28;20028;-49
2022/12/30 06:04:19;;;;;;;33.85;19.75;;;;;;;-0.10;80.62;94250.94;5067730;28;20032;-45
2022/12/30 06:06:45;;;;;;;54.08;28.40;;;;;;;-0.16;79.99;94252.03;5070062;28;20095;-46
2022/12/30 06:09:10;;;;;;;36.28;19.00;;;;;;;-0.15;79.87;94256.25;5068662;28;20512;-46
2022/12/30 06:11:36;;;;;;;38.80;21.88;;;;;;;0.04;79.31;94252.25;5076019;28;20032;-44
2022/12/30 06:14:01;;;;;;;37.70;21.73;;;;;;;-0.18;78.86;94260.66;5076754;28;20028;-44
2022/12/30 06:16:27;;;;;;;36.35;21.92;;;;;;;-0.73;81.17;94253.91;5078471;28;20868;-46
2022/12/30 06:18:52;;;;;;;39.75;21.60;;;;;;;-0.64;81.88;94242.28;5071092;28;20025;-44
2022/12/30 06:21:18;;;;;;;46.30;23.38;;;;;;;-0.39;81.44;94250.03;5066715;28;20052;-44
2022/12/30 06:23:43;;;;;;;44.30;24.05;;;;;;;-0.24;80.94;94254.31;5064630;28;20024;-46
2022/12/30 06:26:09;;;;;;;40.42;22.83;;;;;;;-0.30;80.70;94253.44;5074789;28;20389;-44
2022/12/30 06:28:34;;;;;;;46.75;24.35;;;;;;;-0.29;80.73;94262.34;5070866;28;20031;-45
2022/12/30 06:30:59;;;;;;;34.08;19.90;;;;;;;-0.15;79.90;94257.00;5076990;28;20052;-44
2022/12/30 06:33:25;;;;;;;45.08;23.00;;;;;;;-0.04;79.46;94251.06;5083703;28;20035;-46
2022/12/30 06:35:51;;;;;;;44.80;20.58;;;;;;;-0.18;78.67;94241.66;5074579;28;20025;-44
2022/12/30 06:38:16;;;;;;;61.35;30.00;;;;;;;-0.29;80.41;94267.78;5084330;28;20051;-46
2022/12/30 06:40:44;;;;;;;204.73;64.80;;;;;;;-0.36;82.18;94273.53;5083487;28;20073;-45
2022/12/30 06:43:10;;;;;;;146.85;58.30;;;;;;;-0.17;82.34;94272.22;5078333;28;20032;-45
2022/12/30 06:45:36;;;;;;;125.13;50.15;;;;;;;0.08;81.67;94260.97;5071307;28;20025;-44
2022/12/30 06:48:02;;;;;;;72.82;34.53;;;;;;;0.19;80.96;94265.88;5066884;28;20105;-45
2022/12/30 06:50:28;;;;;;;74.70;34.20;;;;;;;0.19;80.79;94265.88;5062534;28;20516;-46
2022/12/30 06:52:53;;;;;;;103.63;36.63;;;;;;;0.36;80.79;94265.00;5063591;28;20474;-47
2022/12/30 06:55:21;;;;;;;133.35;35.95;;;;;;;0.48;81.66;94271.41;5068845;28;20082;-48
2022/12/30 06:57:47;;;;;;;128.10;42.90;;;;;;;0.67;81.86;94267.34;5063373;28;20020;-45
2022/12/30 07:00:14;;;;;;;98.30;39.05;;;;;;;0.72;81.70;94274.84;5063607;28;21273;-45
2022/12/30 07:02:39;;;;;;;93.65;37.50;;;;;;;0.84;81.36;94265.69;5068023;28;20055;-45
2022/12/30 07:05:05;;;;;;;91.80;32.08;;;;;;;1.05;81.06;94269.28;5069910;28;20048;-45
2022/12/30 07:07:31;;;;;;;76.20;28.88;;;;;;;1.39;79.83;94277.53;5066907;28;20111;-45
2022/12/30 07:09:56;;;;;;;61.35;28.35;;;;;;;1.74;77.96;94276.88;5066909;28;20119;-46
2022/12/30 07:12:22;;;;;;;69.72;28.17;;;;;;;2.03;76.34;94274.84;5068423;28;20020;-45
2022/12/30 07:14:47;;;;;;;73.40;32.60;;;;;;;2.35;75.38;94275.03;5078926;28;20031;-46
2022/12/30 07:17:13;;;;;;;70.10;31.30;;;;;;;2.66;74.01;94283.34;5080224;28;20028;-44
2022/12/30 07:19:38;;;;;;;55.05;30.30;;;;;;;2.66;72.99;94278.66;5078382;28;20094;-44
2022/12/30 07:22:04;;;;;;;66.07;28.90;;;;;;;2.91;72.49;94283.41;5075903;28;20032;-46
2022/12/30 07:24:29;;;;;;;71.75;28.65;;;;;;;2.94;71.43;94282.47;5082471;28;20020;-46
2022/12/30 07:26:54;;;;;;;56.45;25.77;;;;;;;3.15;71.33;94291.34;5077838;28;20561;-46
2022/12/30 07:29:20;;;;;;;86.07;39.42;;;;;;;3.21;70.61;94289.44;5080609;28;20404;-44
2022/12/30 07:31:46;;;;;;;64.90;33.60;;;;;;;3.35;69.76;94271.47;5076372;28;20032;-48
2022/12/30 07:34:11;;;;;;;55.55;28.77;;;;;;;3.24;69.82;94293.19;5072178;28;20430;-44
2022/12/30 07:36:37;;;;;;;79.60;40.70;;;;;;;3.20;70.50;94303.56;5071245;28;20029;-44
2022/12/30 07:39:03;;;;;;;72.05;39.05;;;;;;;3.47;69.65;94298.38;5079608;28;20116;-46
2022/12/30 07:41:28;;;;;;;75.85;42.92;;;;;;;3.44;70.33;94296.63;5075754;28;20115;-46
2022/12/30 07:43:54;;;;;;;56.13;29.92;;;;;;;3.53;69.60;94293.72;5078855;28;20016;-44
2022/12/30 07:46:19;;;;;;;50.33;29.05;;;;;;;3.72;69.50;94297.63;5071450;28;20457;-44
2022/12/30 07:48:45;;;;;;;55.60;29.33;;;;;;;4.10;69.67;94298.38;5070510;28;20629;-46
2022/12/30 07:51:13;;;;;;;37.00;20.90;;;;;;;4.46;67.88;94301.09;5065530;28;20032;-46
2022/12/30 07:53:39;;;;;;;45.70;24.55;;;;;;;4.80;66.65;94304.78;5065517;28;20024;-46
2022/12/30 07:56:05;;;;;;;37.65;23.65;;;;;;;5.51;65.46;94302.75;5068962;28;20024;-45
2022/12/30 07:58:31;;;;;;;34.20;21.92;;;;;;;6.05;64.30;94304.84;5071553;28;20086;-46
2022/12/30 08:00:57;;;;;;;29.52;19.02;;;;;;;6.60;61.95;94298.56;5066643;28;20492;-44
2022/12/30 08:03:22;;;;;;;24.40;16.42;;;;;;;7.24;59.32;94299.31;5067179;28;20177;-45
2022/12/30 08:05:48;;;;;;;28.92;17.50;;;;;;;8.16;58.49;94301.25;5078466;28;20017;-45
2022/12/30 08:08:13;;;;;;;31.67;17.10;;;;;;;8.40;56.31;94298.56;5079732;28;20032;-46
2022/12/30 08:10:39;;;;;;;21.63;15.65;;;;;;;9.62;54.20;94305.44;5077443;28;20399;-45
2022/12/30 08:13:04;;;;;;;22.90;15.73;;;;;;;10.86;50.91;94296.22;5080425;28;20024;-45
2022/12/30 08:15:29;;;;;;;18.83;13.57;;;;;;;11.49;48.90;94289.72;5076673;28;20487;-45
2022/12/30 08:17:56;;;;;;;23.92;14.75;;;;;;;12.58;47.34;94303.63;5078559;28;20519;-45
2022/12/30 08:20:21;;;;;;;19.83;10.73;;;;;;;13.06;45.19;94291.81;5077007;28;20105;-46
2022/12/30 08:22:47;;;;;;;17.77;12.32;;;;;;;13.83;43.86;94290.91;5078556;28;20028;-46
2022/12/30 08:25:12;;;;;;;13.85;10.15;;;;;;;13.97;42.75;94292.25;5076035;28;20036;-46
2022/12/30 08:27:38;;;;;;;12.98;10.40;;;;;;;14.60;41.44;94285.72;5069475;28;20111;-45
2022/12/30 08:30:04;;;;;;;14.80;11.57;;;;;;;14.56;41.35;94281.81;5065449;28;20046;-46
2022/12/30 08:32:29;;;;;;;18.63;13.05;;;;;;;15.08;40.02;94290.16;5072670;28;20036;-47
2022/12/30 08:34:54;;;;;;;16.55;11.68;;;;;;;14.74;40.46;94295.38;5068874;28;20736;-45
2022/12/30 08:37:20;;;;;;;15.25;11.85;;;;;;;14.84;40.71;94290.72;5075798;28;20107;-44
2022/12/30 08:39:45;;;;;;;16.92;12.30;;;;;;;16.02;38.53;94290.84;5071515;28;20024;-45
2022/12/30 08:42:11;;;;;;;16.33;11.77;;;;;;;16.30;37.77;94284.94;5080555;28;20487;-45
2022/12/30 08:44:36;;;;;;;20.42;15.32;;;;;;;16.35;37.36;94281.19;5070345;28;20051;-45
2022/12/30 08:47:02;;;;;;;30.70;20.70;;;;;;;16.77;37.44;94278.50;5072278;28;20025;-43
2022/12/30 08:49:27;;;;;;;28.33;21.33;;;;;;;16.85;36.83;94276.41;5071470;28;20463;-44
2022/12/30 08:51:53;;;;;;;23.02;19.10;;;;;;;16.98;36.29;94278.91;5072905;28;20403;-44
2022/12/30 08:54:18;;;;;;;20.45;17.00;;;;;;;17.19;36.88;94279.25;5069124;28;20031;-44
2022/12/30 08:56:45;;;;;;;18.25;14.60;;;;;;;16.11;38.76;94276.31;5070056;28;20482;-47
2022/12/30 08:59:11;;;;;;;18.92;16.13;;;;;;;16.29;38.61;94273.03;5073449;28;20036;-43
2022/12/30 09:01:38;;;;;;;18.80;14.82;;;;;;;17.63;37.05;94268.22;5070784;28;20803;-43
2022/12/30 09:04:06;;;;;;;18.20;14.52;;;;;;;16.18;38.28;94267.16;5069381;28;20027;-44
2022/12/30 09:06:33;;;;;;;21.60;15.68;;;;;;;17.02;37.33;94266.00;5070231;28;20028;-43
2022/12/30 09:08:59;;;;;;;17.98;15.23;;;;;;;17.60;36.78;94261.00;5068205;28;20032;-45
2022/12/30 09:11:31;;;;;;;26.42;19.88;;;;;;;18.44;35.53;94264.19;5072069;28;20047;-44
2022/12/30 09:14:01;;;;;;;37.08;27.83;;;;;;;18.62;34.64;94265.63;5066804;28;20024;-44
2022/12/30 09:16:27;;;;;;;36.97;29.67;;;;;;;18.99;34.16;94257.97;5067748;28;20024;-45
2022/12/30 09:18:52;;;;;;;41.47;32.28;;;;;;;19.52;33.80;94261.31;5065885;28;20415;-45
2022/12/30 09:21:19;;;;;;;38.50;29.67;;;;;;;19.87;33.22;94252.63;5064305;28;20048;-44
2022/12/30 09:23:44;;;;;;;39.22;29.58;;;;;;;19.59;33.40;94254.09;5068945;28;20024;-44
2022/12/30 09:26:14;;;;;;;37.63;27.05;;;;;;;19.97;33.47;94233.72;5075841;28;20042;-44
2022/12/30 09:28:40;;;;;;;35.63;27.48;;;;;;;20.29;32.52;94252.91;5062200;28;20162;-45
2022/12/30 09:31:05;;;;;;;29.20;23.30;;;;;;;20.65;32.74;94249.84;5073361;28;20553;-47
2022/12/30 09:33:31;;;;;;;36.05;27.33;;;;;;;21.38;31.53;94244.31;5072008;28;20043;-46
2022/12/30 09:35:57;;;;;;;31.35;26.10;;;;;;;21.58;31.23;94236.47;5072608;28;20032;-45
2022/12/30 09:38:22;;;;;;;35.85;28.58;;;;;;;21.65;31.54;94233.47;5068015;28;20036;-45
2022/12/30 09:41:08;;;;;;;27.13;21.95;;;;;;;22.13;30.83;94233.09;5062047;28;20044;-48
2022/12/30 09:43:55;;;;;;;28.08;22.52;;;;;;;22.20;30.74;94229.31;5057118;28;20101;-46
2022/12/30 09:46:35;;;;;;;29.08;22.30;;;;;;;22.72;30.24;94233.97;5062592;28;20036;-45
2022/12/30 09:49:03;;;;;;;32.13;26.42;;;;;;;22.68;29.34;94223.19;5068607;28;20446;-44
2022/12/30 09:52:04;;;;;;;24.30;20.07;;;;;;;22.15;29.56;94215.59;5056639;28;20032;-45
2022/12/30 09:54:30;;;;;;;37.03;26.73;;;;;;;21.63;31.11;94213.69;5043088;28;20052;-44
2022/12/30 09:57:30;;;;;;;28.33;22.23;;;;;;;21.24;31.25;94212.47;5070473;28;20032;-44
2022/12/30 09:59:43;;;;;;;18.55;15.13;;;;;;;20.60;32.41;94203.19;5094606;28;20032;-44
2022/12/30 10:02:20;;;;;;;19.30;13.73;;;;;;;20.28;33.63;94193.25;5069504;28;20036;-45
2022/12/30 10:04:45;;;;;;;15.13;12.48;;;;;;;20.47;33.16;94180.50;5095220;28;20032;-54
2022/12/30 10:07:37;;;;;;;14.02;10.27;;;;;;;20.83;31.80;94194.22;5073762;28;20056;-51
2022/12/30 10:10:17;;;;;;;64.93;35.92;;;;;;;20.76;32.06;94204.31;5065110;28;20044;-56
2022/12/30 10:13:01;;;;;;;51.10;27.95;;;;;;;20.29;32.38;94199.63;5065199;28;20800;-49
2022/12/30 10:15:34;;;;;;;22.33;13.63;;;;;;;20.42;32.16;94193.53;5066855;28;20502;-50
2022/12/30 10:18:44;;;;;;;25.42;13.88;;;;;;;20.86;32.24;94190.19;5082595;28;20032;-54
2022/12/30 10:21:28;;;;;;;16.30;10.90;;;;;;;21.42;30.74;94196.09;5065657;28;20082;-55
2022/12/30 10:24:12;;;;;;;12.77;9.65;;;;;;;20.95;32.00;94187.34;5065000;28;20519;-45
2022/12/30 10:26:50;;;;;;;10.27;8.50;;;;;;;21.12;31.25;94189.19;5059319;28;20037;-47
2022/12/30 10:29:30;;;;;;;14.40;8.20;;;;;;;21.42;31.84;94179.25;5076631;28;20132;-46
2022/12/30 10:31:56;;;;;;;7.80;6.88;;;;;;;21.40;30.83;94179.81;5067241;28;20039;-47
2022/12/30 10:34:28;;;;;;;9.02;5.95;;;;;;;21.54;30.21;94180.75;5100874;28;20060;-46
2022/12/30 10:37:04;;;;;;;7.30;5.38;;;;;;;21.46;30.35;94179.50;5070332;28;20029;-47
2022/12/30 10:39:41;;;;;;;7.63;5.72;;;;;;;20.81;31.15;94182.84;5064919;28;20754;-46
2022/12/30 10:42:44;;;;;;;7.60;5.93;;;;;;;20.49;30.96;94169.44;5057825;28;20036;-46
2022/12/30 10:45:21;;;;;;;8.32;6.75;;;;;;;20.32;31.97;94171.09;5060950;28;20028;-46
2022/12/30 10:48:14;;;;;;;9.10;7.25;;;;;;;20.29;31.13;94172.28;5063080;28;20463;-45
2022/12/30 10:50:41;;;;;;;12.50;7.75;;;;;;;20.25;31.89;94171.25;5064272;28;20029;-46
2022/12/30 10:53:17;;;;;;;9.52;6.78;;;;;;;20.53;31.33;94167.63;5090432;28;20068;-46
2022/12/30 10:55:51;;;;;;;11.27;7.60;;;;;;;20.81;31.63;94172.34;5063026;28;20032;-45
2022/12/30 10:58:31;;;;;;;10.23;8.13;;;;;;;20.99;31.19;94167.97;5068984;28;20032;-46
2022/12/30 11:00:58;;;;;;;10.35;8.13;;;;;;;20.99;31.10;94167.97;5071073;28;20054;-47
2022/12/30 11:03:30;;;;;;;11.38;8.77;;;;;;;20.92;30.52;94156.94;5095646;27;20116;-45
2022/12/30 11:05:56;;;;;;;15.30;9.00;;;;;;;21.25;30.52;94163.38;5067390;28;20103;-48
2022/12/30 11:08:27;;;;;;;10.75;6.97;;;;;;;21.87;29.60;94152.69;5067366;28;20039;-47
2022/12/30 11:11:02;;;;;;;10.68;7.20;;;;;;;21.71;30.12;94138.31;5067420;28;20032;-46
2022/12/30 11:16:12;;;;;;;10.88;7.93;;;;;;;22.21;29.44;94154.84;5069390;28;20043;-47
2022/12/30 11:18:40;;;;;;;12.15;8.70;;;;;;;22.47;29.70;94150.09;5069190;28;20039;-45
2022/12/30 11:21:06;;;;;;;145.68;17.08;;;;;;;22.12;29.06;94141.59;5061701;28;20044;-47
2022/12/30 11:23:37;;;;;;;16.50;7.70;;;;;;;22.01;28.94;94147.19;5056723;28;20048;-47
2022/12/30 11:26:06;;;;;;;10.30;6.45;;;;;;;21.16;30.46;94112.91;5069389;28;20028;-45
2022/12/30 11:28:50;;;;;;;;;;;;;;;21.21;30.90;94131.47;5070212;28;20036;-47
2022/12/30 11:31:16;;;;;;;10.55;6.88;;;;;;;21.40;29.89;94117.28;5073944;28;19923;-47
2022/12/30 11:33:54;;;;;;;26.30;8.65;;;;;;;21.54;30.22;94127.38;5072771;28;20024;-46
2022/12/30 11:36:30;;;;;;;9.50;7.03;;;;;;;21.79;29.35;94129.63;5069633;28;20033;-48
2022/12/30 11:39:04;;;;;;;9.05;6.53;;;;;;;21.43;30.20;94127.31;5073334;28;20024;-47
2022/12/30 11:41:31;;;;;;;9.80;7.00;;;;;;;21.03;30.86;94119.78;5076161;28;20044;-44
2022/12/30 11:43:59;;;;;;;10.65;7.00;;;;;;;;;;5067458;28;20656;-44
2022/12/30 11:46:29;;;;;;;7.85;6.63;;;;;;;21.06;30.45;94113.72;5070996;28;20040;-44
2022/12/30 11:48:58;;;;;;;9.13;6.68;;;;;;;20.73;30.32;94123.34;5063194;28;20029;-45
2022/12/30 11:51:32;;;;;;;10.27;7.35;;;;;;;20.28;30.85;94116.81;5060443;28;20461;-45
2022/12/30 11:54:09;;;;;;;13.90;8.88;;;;;;;20.32;31.43;94117.81;5096834;27;20043;-44
2022/12/30 11:56:34;;;;;;;8.32;6.72;;;;;;;19.89;31.35;94119.00;5069260;28;20477;-44
2022/12/30 11:59:08;;;;;;;11.55;7.93;;;;;;;20.17;32.35;94106.19;5058985;28;20277;-44
2022/12/30 12:01:45;;;;;;;9.35;7.70;;;;;;;20.21;31.78;94112.84;5065285;28;20075;-44
2022/12/30 12:04:46;;;;;;;13.85;8.80;;;;;;;19.98;31.26;94123.84;5065447;28;20027;-43
2022/12/30 12:07:17;;;;;;;12.50;8.27;;;;;;;19.87;31.52;94118.09;5024946;28;20120;-44
2022/12/30 12:10:12;;;;;;;9.88;7.22;;;;;;;19.63;32.66;94112.28;5060614;28;20067;-44
2022/12/30 12:12:43;;;;;;;9.57;6.70;;;;;;;19.36;33.22;94097.69;5060714;28;20037;-46
2022/12/30 12:15:27;;;;;;;8.63;6.80;;;;;;;19.29;32.55;94120.25;5085344;28;20563;-45
2022/12/30 12:18:22;;;;;;;10.20;7.05;;;;;;;19.07;32.64;94118.63;5074091;28;20108;-45
2022/12/30 12:21:05;;;;;;;12.55;7.57;;;;;;;18.61;33.66;94127.84;5082878;28;20380;-44
2022/12/30 12:23:58;;;;;;;11.93;8.70;;;;;;;18.65;33.80;94116.22;5069870;28;20494;-45
2022/12/30 12:26:40;;;;;;;10.77;6.35;;;;;;;18.69;33.33;94113.75;5076091;28;20028;-44
2022/12/30 12:29:05;;;;;;;8.40;6.97;;;;;;;18.68;33.61;94117.84;5070911;28;20054;-45
2022/12/30 12:31:42;;;;;;;9.23;6.70;;;;;;;18.16;34.63;94109.00;5069932;28;20724;-43